sensor_id;sensor_type;location;lat;lon;timestamp;P1;durP1;ratioP1;P2;durP2;ratioP2
45059;SDS011;30799;49.060;9.312;2023-03-04T00:02:11;6.85;;;5.80;;
45059;SDS011;30799;49.060;9.312;2023-03-04T00:04:38;7.50;;;6.15;;
45059;SDS011;30799;49.060;9.312;2023-03-04T00:07:04;6.50;;;5.78;;
45059;SDS011;30799;49.060;9.312;2023-03-04T00:09:31;5.85;;;4.82;;
45059;SDS011;30799;49.060;9.312;2023-03-04T00:11:58;7.47;;;5.90;;
45059;SDS011;30799;49.060;9.312;2023-03-04T00:14:24;6.78;;;5.70;;
45059;SDS011;30799;49.060;9.312;2023-03-04T00:16:53;6.03;;;5.43;;
45059;SDS011;30799;49.060;9.312;2023-03-04T00:19:20;7.15;;;5.88;;
45059;SDS011;30799;49.060;9.312;2023-03-04T00:21:47;7.22;;;5.68;;
45059;SDS011;30799;49.060;9.312;2023-03-04T00:24:13;5.95;;;5.30;;
45059;SDS011;30799;49.060;9.312;2023-03-04T00:26:40;7.38;;;5.75;;
45059;SDS011;30799;49.060;9.312;2023-03-04T00:29:06;6.47;;;5.70;;
45059;SDS011;30799;49.060;9.312;2023-03-04T00:31:33;5.70;;;5.20;;
45059;SDS011;30799;49.060;9.312;2023-03-04T00:34:00;8.05;;;5.72;;
45059;SDS011;30799;49.060;9.312;2023-03-04T00:36:26;5.82;;;5.20;;
45059;SDS011;30799;49.060;9.312;2023-03-04T00:38:53;5.55;;;4.75;;
45059;SDS011;30799;49.060;9.312;2023-03-04T00:41:19;6.85;;;5.63;;
45059;SDS011;30799;49.060;9.312;2023-03-04T00:43:46;5.85;;;5.20;;
45059;SDS011;30799;49.060;9.312;2023-03-04T00:46:13;6.07;;;5.47;;
45059;SDS011;30799;49.060;9.312;2023-03-04T00:48:39;5.68;;;5.07;;
45059;SDS011;30799;49.060;9.312;2023-03-04T00:51:06;6.13;;;5.53;;
45059;SDS011;30799;49.060;9.312;2023-03-04T00:53:33;6.35;;;5.57;;
45059;SDS011;30799;49.060;9.312;2023-03-04T00:55:59;6.25;;;5.65;;
45059;SDS011;30799;49.060;9.312;2023-03-04T00:58:26;6.15;;;5.47;;
45059;SDS011;30799;49.060;9.312;2023-03-04T01:00:53;6.10;;;5.28;;
45059;SDS011;30799;49.060;9.312;2023-03-04T01:03:19;5.45;;;4.90;;
45059;SDS011;30799;49.060;9.312;2023-03-04T01:05:46;5.60;;;5.00;;
45059;SDS011;30799;49.060;9.312;2023-03-04T01:08:13;7.43;;;5.50;;
45059;SDS011;30799;49.060;9.312;2023-03-04T01:10:39;6.78;;;4.95;;
45059;SDS011;30799;49.060;9.312;2023-03-04T01:13:06;5.78;;;5.15;;
45059;SDS011;30799;49.060;9.312;2023-03-04T01:15:32;5.47;;;4.97;;
45059;SDS011;30799;49.060;9.312;2023-03-04T01:17:59;5.72;;;5.15;;
45059;SDS011;30799;49.060;9.312;2023-03-04T01:20:26;8.00;;;5.13;;
45059;SDS011;30799;49.060;9.312;2023-03-04T01:22:52;6.05;;;5.00;;
45059;SDS011;30799;49.060;9.312;2023-03-04T01:25:19;5.20;;;4.63;;
45059;SDS011;30799;49.060;9.312;2023-03-04T01:27:45;5.28;;;4.78;;
45059;SDS011;30799;49.060;9.312;2023-03-04T01:30:12;5.20;;;4.70;;
45059;SDS011;30799;49.060;9.312;2023-03-04T01:32:39;6.45;;;5.20;;
45059;SDS011;30799;49.060;9.312;2023-03-04T01:35:06;5.22;;;4.72;;
45059;SDS011;30799;49.060;9.312;2023-03-04T01:37:33;5.57;;;4.97;;
45059;SDS011;30799;49.060;9.312;2023-03-04T01:39:59;5.43;;;4.93;;
45059;SDS011;30799;49.060;9.312;2023-03-04T01:42:26;6.60;;;5.03;;
45059;SDS011;30799;49.060;9.312;2023-03-04T01:44:57;5.43;;;4.93;;
45059;SDS011;30799;49.060;9.312;2023-03-04T01:47:24;5.10;;;4.60;;
45059;SDS011;30799;49.060;9.312;2023-03-04T01:49:55;5.32;;;4.82;;
45059;SDS011;30799;49.060;9.312;2023-03-04T01:52:23;6.25;;;4.70;;
45059;SDS011;30799;49.060;9.312;2023-03-04T01:54:52;5.28;;;4.78;;
45059;SDS011;30799;49.060;9.312;2023-03-04T01:57:20;5.35;;;4.85;;
45059;SDS011;30799;49.060;9.312;2023-03-04T02:00:09;5.82;;;5.10;;
45059;SDS011;30799;49.060;9.312;2023-03-04T02:02:47;4.78;;;4.25;;
45059;SDS011;30799;49.060;9.312;2023-03-04T02:05:18;5.75;;;4.70;;
45059;SDS011;30799;49.060;9.312;2023-03-04T02:07:45;5.25;;;4.75;;
45059;SDS011;30799;49.060;9.312;2023-03-04T02:10:12;5.75;;;5.22;;
45059;SDS011;30799;49.060;9.312;2023-03-04T02:12:39;5.20;;;4.70;;
45059;SDS011;30799;49.060;9.312;2023-03-04T02:15:06;5.35;;;4.85;;
45059;SDS011;30799;49.060;9.312;2023-03-04T02:17:33;5.22;;;4.53;;
45059;SDS011;30799;49.060;9.312;2023-03-04T02:20:11;5.13;;;4.63;;
45059;SDS011;30799;49.060;9.312;2023-03-04T02:22:56;4.75;;;4.30;;
45059;SDS011;30799;49.060;9.312;2023-03-04T02:26:06;5.35;;;4.85;;
45059;SDS011;30799;49.060;9.312;2023-03-04T02:28:39;4.75;;;4.32;;
45059;SDS011;30799;49.060;9.312;2023-03-04T02:31:08;4.88;;;4.47;;
45059;SDS011;30799;49.060;9.312;2023-03-04T02:33:50;5.32;;;4.82;;
45059;SDS011;30799;49.060;9.312;2023-03-04T02:36:17;5.05;;;4.57;;
45059;SDS011;30799;49.060;9.312;2023-03-04T02:38:44;5.70;;;5.10;;
45059;SDS011;30799;49.060;9.312;2023-03-04T02:41:12;5.10;;;4.60;;
45059;SDS011;30799;49.060;9.312;2023-03-04T02:43:42;4.88;;;4.38;;
45059;SDS011;30799;49.060;9.312;2023-03-04T02:46:11;5.13;;;4.63;;
45059;SDS011;30799;49.060;9.312;2023-03-04T02:48:38;4.72;;;4.30;;
45059;SDS011;30799;49.060;9.312;2023-03-04T02:51:05;5.53;;;4.82;;
45059;SDS011;30799;49.060;9.312;2023-03-04T02:53:31;5.25;;;4.63;;
45059;SDS011;30799;49.060;9.312;2023-03-04T02:55:58;4.38;;;3.97;;
45059;SDS011;30799;49.060;9.312;2023-03-04T02:58:25;5.20;;;4.70;;
45059;SDS011;30799;49.060;9.312;2023-03-04T03:00:51;5.25;;;4.75;;
45059;SDS011;30799;49.060;9.312;2023-03-04T03:03:18;4.80;;;4.20;;
45059;SDS011;30799;49.060;9.312;2023-03-04T03:05:45;5.55;;;4.80;;
45059;SDS011;30799;49.060;9.312;2023-03-04T03:08:11;5.07;;;4.57;;
45059;SDS011;30799;49.060;9.312;2023-03-04T03:10:38;4.30;;;3.90;;
45059;SDS011;30799;49.060;9.312;2023-03-04T03:13:05;5.15;;;4.70;;
45059;SDS011;30799;49.060;9.312;2023-03-04T03:15:31;4.80;;;4.30;;
45059;SDS011;30799;49.060;9.312;2023-03-04T03:17:59;4.72;;;4.32;;
45059;SDS011;30799;49.060;9.312;2023-03-04T03:20:26;4.72;;;4.13;;
45059;SDS011;30799;49.060;9.312;2023-03-04T03:22:53;4.53;;;4.13;;
45059;SDS011;30799;49.060;9.312;2023-03-04T03:25:19;5.07;;;4.60;;
45059;SDS011;30799;49.060;9.312;2023-03-04T03:27:46;4.68;;;4.18;;
45059;SDS011;30799;49.060;9.312;2023-03-04T03:30:13;4.45;;;4.05;;
45059;SDS011;30799;49.060;9.312;2023-03-04T03:32:40;4.43;;;4.03;;
45059;SDS011;30799;49.060;9.312;2023-03-04T03:35:07;4.55;;;4.15;;
45059;SDS011;30799;49.060;9.312;2023-03-04T03:37:34;4.50;;;4.10;;
45059;SDS011;30799;49.060;9.312;2023-03-04T03:40:01;4.78;;;4.28;;
45059;SDS011;30799;49.060;9.312;2023-03-04T03:42:28;4.68;;;4.28;;
45059;SDS011;30799;49.060;9.312;2023-03-04T03:44:55;4.63;;;4.07;;
45059;SDS011;30799;49.060;9.312;2023-03-04T03:47:22;4.82;;;4.40;;
45059;SDS011;30799;49.060;9.312;2023-03-04T03:49:49;4.57;;;4.15;;
45059;SDS011;30799;49.060;9.312;2023-03-04T03:52:16;4.47;;;3.97;;
45059;SDS011;30799;49.060;9.312;2023-03-04T03:54:42;4.93;;;3.95;;
45059;SDS011;30799;49.060;9.312;2023-03-04T03:57:09;4.45;;;4.05;;
45059;SDS011;30799;49.060;9.312;2023-03-04T03:59:36;4.65;;;4.15;;
45059;SDS011;30799;49.060;9.312;2023-03-04T04:02:02;4.57;;;4.18;;
45059;SDS011;30799;49.060;9.312;2023-03-04T04:04:29;4.47;;;4.07;;
45059;SDS011;30799;49.060;9.312;2023-03-04T04:06:56;4.10;;;3.70;;
45059;SDS011;30799;49.060;9.312;2023-03-04T04:09:22;4.57;;;4.18;;
45059;SDS011;30799;49.060;9.312;2023-03-04T04:11:49;4.35;;;3.95;;
45059;SDS011;30799;49.060;9.312;2023-03-04T04:14:15;4.40;;;4.00;;
45059;SDS011;30799;49.060;9.312;2023-03-04T04:16:42;4.55;;;4.15;;
45059;SDS011;30799;49.060;9.312;2023-03-04T04:19:13;4.13;;;3.72;;
45059;SDS011;30799;49.060;9.312;2023-03-04T04:21:43;4.10;;;3.70;;
45059;SDS011;30799;49.060;9.312;2023-03-04T04:24:09;4.10;;;3.70;;
45059;SDS011;30799;49.060;9.312;2023-03-04T04:26:36;6.18;;;4.30;;
45059;SDS011;30799;49.060;9.312;2023-03-04T04:29:03;4.18;;;3.78;;
45059;SDS011;30799;49.060;9.312;2023-03-04T04:31:29;4.45;;;4.05;;
45059;SDS011;30799;49.060;9.312;2023-03-04T04:33:56;4.88;;;4.40;;
45059;SDS011;30799;49.060;9.312;2023-03-04T04:36:23;4.30;;;3.90;;
45059;SDS011;30799;49.060;9.312;2023-03-04T04:38:49;4.38;;;3.85;;
45059;SDS011;30799;49.060;9.312;2023-03-04T04:41:20;4.45;;;3.97;;
45059;SDS011;30799;49.060;9.312;2023-03-04T04:43:53;4.47;;;4.07;;
45059;SDS011;30799;49.060;9.312;2023-03-04T04:46:20;4.15;;;3.80;;
45059;SDS011;30799;49.060;9.312;2023-03-04T04:48:47;3.50;;;3.20;;
45059;SDS011;30799;49.060;9.312;2023-03-04T04:51:13;4.05;;;3.65;;
45059;SDS011;30799;49.060;9.312;2023-03-04T04:53:40;4.40;;;3.70;;
45059;SDS011;30799;49.060;9.312;2023-03-04T04:56:11;4.30;;;3.90;;
45059;SDS011;30799;49.060;9.312;2023-03-04T04:58:39;4.07;;;3.75;;
45059;SDS011;30799;49.060;9.312;2023-03-04T05:01:07;3.88;;;3.50;;
45059;SDS011;30799;49.060;9.312;2023-03-04T05:03:35;3.70;;;3.40;;
45059;SDS011;30799;49.060;9.312;2023-03-04T05:06:04;4.25;;;3.85;;
45059;SDS011;30799;49.060;9.312;2023-03-04T05:08:32;3.78;;;3.47;;
45059;SDS011;30799;49.060;9.312;2023-03-04T05:10:58;3.67;;;3.38;;
45059;SDS011;30799;49.060;9.312;2023-03-04T05:13:25;4.20;;;3.80;;
45059;SDS011;30799;49.060;9.312;2023-03-04T05:15:53;3.83;;;3.53;;
45059;SDS011;30799;49.060;9.312;2023-03-04T05:18:21;4.07;;;3.67;;
45059;SDS011;30799;49.060;9.312;2023-03-04T05:20:50;4.43;;;3.97;;
45059;SDS011;30799;49.060;9.312;2023-03-04T05:23:17;4.38;;;3.97;;
45059;SDS011;30799;49.060;9.312;2023-03-04T05:25:44;4.15;;;3.75;;
45059;SDS011;30799;49.060;9.312;2023-03-04T05:28:12;3.80;;;3.45;;
45059;SDS011;30799;49.060;9.312;2023-03-04T05:30:39;4.18;;;3.80;;
45059;SDS011;30799;49.060;9.312;2023-03-04T05:33:07;4.15;;;3.65;;
45059;SDS011;30799;49.060;9.312;2023-03-04T05:35:35;4.03;;;3.67;;
45059;SDS011;30799;49.060;9.312;2023-03-04T05:38:02;4.10;;;3.70;;
45059;SDS011;30799;49.060;9.312;2023-03-04T05:40:30;4.32;;;3.92;;
45059;SDS011;30799;49.060;9.312;2023-03-04T05:42:56;3.83;;;3.53;;
45059;SDS011;30799;49.060;9.312;2023-03-04T05:45:23;3.72;;;3.42;;
45059;SDS011;30799;49.060;9.312;2023-03-04T05:47:51;3.95;;;3.60;;
45059;SDS011;30799;49.060;9.312;2023-03-04T05:50:18;3.97;;;3.55;;
45059;SDS011;30799;49.060;9.312;2023-03-04T05:52:46;4.00;;;3.60;;
45059;SDS011;30799;49.060;9.312;2023-03-04T05:55:13;4.10;;;3.70;;
45059;SDS011;30799;49.060;9.312;2023-03-04T05:57:40;4.43;;;3.50;;
45059;SDS011;30799;49.060;9.312;2023-03-04T06:00:07;3.67;;;3.30;;
45059;SDS011;30799;49.060;9.312;2023-03-04T06:02:34;4.10;;;3.70;;
45059;SDS011;30799;49.060;9.312;2023-03-04T06:05:02;3.47;;;3.17;;
45059;SDS011;30799;49.060;9.312;2023-03-04T06:07:29;3.95;;;3.65;;
45059;SDS011;30799;49.060;9.312;2023-03-04T06:09:56;3.45;;;3.15;;
45059;SDS011;30799;49.060;9.312;2023-03-04T06:12:23;3.28;;;3.03;;
45059;SDS011;30799;49.060;9.312;2023-03-04T06:14:49;3.70;;;3.30;;
45059;SDS011;30799;49.060;9.312;2023-03-04T06:17:16;3.55;;;3.25;;
45059;SDS011;30799;49.060;9.312;2023-03-04T06:19:43;3.83;;;3.45;;
45059;SDS011;30799;49.060;9.312;2023-03-04T06:22:09;3.53;;;3.22;;
45059;SDS011;30799;49.060;9.312;2023-03-04T06:24:36;3.88;;;3.50;;
45059;SDS011;30799;49.060;9.312;2023-03-04T06:27:03;3.88;;;3.47;;
45059;SDS011;30799;49.060;9.312;2023-03-04T06:29:30;3.75;;;3.45;;
45059;SDS011;30799;49.060;9.312;2023-03-04T06:31:57;3.70;;;3.40;;
45059;SDS011;30799;49.060;9.312;2023-03-04T06:34:24;3.20;;;2.90;;
45059;SDS011;30799;49.060;9.312;2023-03-04T06:36:51;4.22;;;3.28;;
45059;SDS011;30799;49.060;9.312;2023-03-04T06:39:17;3.50;;;3.08;;
45059;SDS011;30799;49.060;9.312;2023-03-04T06:41:44;3.20;;;2.90;;
45059;SDS011;30799;49.060;9.312;2023-03-04T06:44:11;3.53;;;3.20;;
45059;SDS011;30799;49.060;9.312;2023-03-04T06:46:37;3.67;;;3.38;;
45059;SDS011;30799;49.060;9.312;2023-03-04T06:49:04;3.30;;;3.00;;
45059;SDS011;30799;49.060;9.312;2023-03-04T06:51:31;3.67;;;3.38;;
45059;SDS011;30799;49.060;9.312;2023-03-04T06:53:57;3.40;;;3.10;;
45059;SDS011;30799;49.060;9.312;2023-03-04T06:56:24;3.45;;;3.15;;
45059;SDS011;30799;49.060;9.312;2023-03-04T06:58:51;3.40;;;3.10;;
45059;SDS011;30799;49.060;9.312;2023-03-04T07:01:25;5.70;;;3.30;;
45059;SDS011;30799;49.060;9.312;2023-03-04T07:03:53;7.68;;;3.67;;
45059;SDS011;30799;49.060;9.312;2023-03-04T07:06:22;12.23;;;9.55;;
45059;SDS011;30799;49.060;9.312;2023-03-04T07:08:51;13.15;;;9.45;;
45059;SDS011;30799;49.060;9.312;2023-03-04T07:11:18;9.57;;;7.15;;
45059;SDS011;30799;49.060;9.312;2023-03-04T07:13:47;6.45;;;5.20;;
45059;SDS011;30799;49.060;9.312;2023-03-04T07:16:15;7.93;;;4.93;;
45059;SDS011;30799;49.060;9.312;2023-03-04T07:18:44;5.57;;;5.07;;
45059;SDS011;30799;49.060;9.312;2023-03-04T07:21:12;6.85;;;5.25;;
45059;SDS011;30799;49.060;9.312;2023-03-04T07:23:40;7.68;;;4.55;;
45059;SDS011;30799;49.060;9.312;2023-03-04T07:26:07;5.32;;;4.80;;
45059;SDS011;30799;49.060;9.312;2023-03-04T07:28:34;8.13;;;4.72;;
45059;SDS011;30799;49.060;9.312;2023-03-04T07:31:12;4.93;;;4.45;;
45059;SDS011;30799;49.060;9.312;2023-03-04T07:33:49;5.90;;;5.13;;
45059;SDS011;30799;49.060;9.312;2023-03-04T07:36:16;5.20;;;4.45;;
45059;SDS011;30799;49.060;9.312;2023-03-04T07:38:45;5.22;;;4.72;;
45059;SDS011;30799;49.060;9.312;2023-03-04T07:41:13;6.20;;;5.07;;
45059;SDS011;30799;49.060;9.312;2023-03-04T07:43:40;6.10;;;4.93;;
45059;SDS011;30799;49.060;9.312;2023-03-04T07:46:07;6.88;;;5.13;;
45059;SDS011;30799;49.060;9.312;2023-03-04T07:48:35;8.05;;;5.20;;
45059;SDS011;30799;49.060;9.312;2023-03-04T07:51:13;7.72;;;5.38;;
45059;SDS011;30799;49.060;9.312;2023-03-04T07:53:41;24.33;;;17.77;;
45059;SDS011;30799;49.060;9.312;2023-03-04T07:56:11;26.02;;;19.55;;
45059;SDS011;30799;49.060;9.312;2023-03-04T07:58:39;26.35;;;19.92;;
45059;SDS011;30799;49.060;9.312;2023-03-04T08:01:10;25.98;;;18.88;;
45059;SDS011;30799;49.060;9.312;2023-03-04T08:03:38;22.77;;;16.35;;
45059;SDS011;30799;49.060;9.312;2023-03-04T08:06:06;21.25;;;14.07;;
45059;SDS011;30799;49.060;9.312;2023-03-04T08:08:35;21.13;;;13.05;;
45059;SDS011;30799;49.060;9.312;2023-03-04T08:11:03;16.88;;;12.20;;
45059;SDS011;30799;49.060;9.312;2023-03-04T08:13:31;15.23;;;11.30;;
45059;SDS011;30799;49.060;9.312;2023-03-04T08:15:58;14.40;;;11.25;;
45059;SDS011;30799;49.060;9.312;2023-03-04T08:18:25;17.25;;;11.05;;
45059;SDS011;30799;49.060;9.312;2023-03-04T08:20:52;15.98;;;11.32;;
45059;SDS011;30799;49.060;9.312;2023-03-04T08:23:19;14.20;;;10.48;;
45059;SDS011;30799;49.060;9.312;2023-03-04T08:25:46;16.63;;;10.38;;
45059;SDS011;30799;49.060;9.312;2023-03-04T08:28:13;12.50;;;9.10;;
45059;SDS011;30799;49.060;9.312;2023-03-04T08:30:41;15.60;;;8.70;;
45059;SDS011;30799;49.060;9.312;2023-03-04T08:33:08;13.23;;;9.52;;
45059;SDS011;30799;49.060;9.312;2023-03-04T08:35:35;11.43;;;8.15;;
45059;SDS011;30799;49.060;9.312;2023-03-04T08:38:04;12.13;;;8.77;;
45059;SDS011;30799;49.060;9.312;2023-03-04T08:40:31;13.80;;;8.52;;
45059;SDS011;30799;49.060;9.312;2023-03-04T08:42:58;15.90;;;8.27;;
45059;SDS011;30799;49.060;9.312;2023-03-04T08:45:25;14.52;;;8.18;;
45059;SDS011;30799;49.060;9.312;2023-03-04T08:47:52;14.70;;;8.93;;
45059;SDS011;30799;49.060;9.312;2023-03-04T08:50:18;15.73;;;9.07;;
45059;SDS011;30799;49.060;9.312;2023-03-04T08:52:47;12.18;;;8.55;;
45059;SDS011;30799;49.060;9.312;2023-03-04T08:55:14;15.90;;;9.13;;
45059;SDS011;30799;49.060;9.312;2023-03-04T08:57:41;13.63;;;8.73;;
45059;SDS011;30799;49.060;9.312;2023-03-04T09:00:08;13.52;;;8.90;;
45059;SDS011;30799;49.060;9.312;2023-03-04T09:02:35;15.18;;;9.43;;
45059;SDS011;30799;49.060;9.312;2023-03-04T09:05:02;13.68;;;8.75;;
45059;SDS011;30799;49.060;9.312;2023-03-04T09:07:29;14.65;;;8.55;;
45059;SDS011;30799;49.060;9.312;2023-03-04T09:09:55;12.30;;;8.48;;
45059;SDS011;30799;49.060;9.312;2023-03-04T09:12:22;12.93;;;8.57;;
45059;SDS011;30799;49.060;9.312;2023-03-04T09:14:49;15.27;;;8.98;;
45059;SDS011;30799;49.060;9.312;2023-03-04T09:17:35;15.20;;;9.07;;
45059;SDS011;30799;49.060;9.312;2023-03-04T09:20:02;15.68;;;8.68;;
45059;SDS011;30799;49.060;9.312;2023-03-04T09:22:29;12.52;;;9.10;;
45059;SDS011;30799;49.060;9.312;2023-03-04T09:24:56;14.23;;;8.43;;
45059;SDS011;30799;49.060;9.312;2023-03-04T09:27:23;13.77;;;8.27;;
45059;SDS011;30799;49.060;9.312;2023-03-04T09:29:50;18.08;;;13.60;;
45059;SDS011;30799;49.060;9.312;2023-03-04T09:32:16;20.73;;;15.48;;
45059;SDS011;30799;49.060;9.312;2023-03-04T09:34:43;20.40;;;15.18;;
45059;SDS011;30799;49.060;9.312;2023-03-04T09:37:10;16.20;;;11.98;;
45059;SDS011;30799;49.060;9.312;2023-03-04T09:39:36;12.95;;;10.25;;
45059;SDS011;30799;49.060;9.312;2023-03-04T09:42:03;14.18;;;10.48;;
45059;SDS011;30799;49.060;9.312;2023-03-04T09:44:36;11.95;;;9.52;;
45059;SDS011;30799;49.060;9.312;2023-03-04T09:47:08;14.43;;;11.73;;
45059;SDS011;30799;49.060;9.312;2023-03-04T09:49:39;15.20;;;10.05;;
45059;SDS011;30799;49.060;9.312;2023-03-04T09:54:54;11.90;;;8.25;;
45059;SDS011;30799;49.060;9.312;2023-03-04T10:00:38;9.07;;;7.10;;
45059;SDS011;30799;49.060;9.312;2023-03-04T10:05:54;10.38;;;7.10;;
45059;SDS011;30799;49.060;9.312;2023-03-04T10:11:17;9.13;;;6.50;;
45059;SDS011;30799;49.060;9.312;2023-03-04T10:16:31;7.68;;;6.10;;
45059;SDS011;30799;49.060;9.312;2023-03-04T10:21:56;11.43;;;6.82;;
45059;SDS011;30799;49.060;9.312;2023-03-04T10:24:25;28.40;;;17.98;;
45059;SDS011;30799;49.060;9.312;2023-03-04T10:26:59;26.13;;;18.35;;
45059;SDS011;30799;49.060;9.312;2023-03-04T10:29:30;25.00;;;18.15;;
45059;SDS011;30799;49.060;9.312;2023-03-04T10:31:58;21.80;;;17.65;;
45059;SDS011;30799;49.060;9.312;2023-03-04T10:34:25;23.52;;;18.17;;
45059;SDS011;30799;49.060;9.312;2023-03-04T10:36:59;21.98;;;17.95;;
45059;SDS011;30799;49.060;9.312;2023-03-04T10:39:30;18.02;;;15.10;;
45059;SDS011;30799;49.060;9.312;2023-03-04T10:42:01;16.95;;;13.68;;
45059;SDS011;30799;49.060;9.312;2023-03-04T10:44:33;21.75;;;14.77;;
45059;SDS011;30799;49.060;9.312;2023-03-04T10:47:00;20.77;;;14.13;;
45059;SDS011;30799;49.060;9.312;2023-03-04T10:49:27;18.73;;;13.35;;
45059;SDS011;30799;49.060;9.312;2023-03-04T10:54:49;16.50;;;11.07;;
45059;SDS011;30799;49.060;9.312;2023-03-04T10:57:37;15.20;;;10.85;;
45059;SDS011;30799;49.060;9.312;2023-03-04T11:02:43;13.88;;;9.60;;
45059;SDS011;30799;49.060;9.312;2023-03-04T11:07:44;11.57;;;7.93;;
45059;SDS011;30799;49.060;9.312;2023-03-04T11:10:22;11.02;;;8.18;;
45059;SDS011;30799;49.060;9.312;2023-03-04T11:15:26;11.68;;;7.60;;
45059;SDS011;30799;49.060;9.312;2023-03-04T11:17:58;10.02;;;6.55;;
45059;SDS011;30799;49.060;9.312;2023-03-04T11:20:32;9.40;;;7.10;;
45059;SDS011;30799;49.060;9.312;2023-03-04T11:23:11;12.48;;;7.13;;
45059;SDS011;30799;49.060;9.312;2023-03-04T11:25:40;9.57;;;6.60;;
45059;SDS011;30799;49.060;9.312;2023-03-04T11:28:55;9.45;;;6.60;;
45059;SDS011;30799;49.060;9.312;2023-03-04T11:31:13;13.20;;;6.50;;
45059;SDS011;30799;49.060;9.312;2023-03-04T11:36:22;10.35;;;6.20;;
45059;SDS011;30799;49.060;9.312;2023-03-04T11:42:44;10.07;;;5.85;;
45059;SDS011;30799;49.060;9.312;2023-03-04T11:45:18;7.68;;;5.30;;
45059;SDS011;30799;49.060;9.312;2023-03-04T11:50:52;7.38;;;5.22;;
45059;SDS011;30799;49.060;9.312;2023-03-04T12:01:58;6.13;;;4.90;;
45059;SDS011;30799;49.060;9.312;2023-03-04T12:04:39;8.85;;;5.55;;
45059;SDS011;30799;49.060;9.312;2023-03-04T12:16:16;7.78;;;5.03;;
45059;SDS011;30799;49.060;9.312;2023-03-04T12:27:48;6.13;;;4.60;;
45059;SDS011;30799;49.060;9.312;2023-03-04T12:33:11;7.03;;;5.22;;
45059;SDS011;30799;49.060;9.312;2023-03-04T12:35:52;7.50;;;4.90;;
45059;SDS011;30799;49.060;9.312;2023-03-04T12:43:51;6.90;;;4.75;;
45059;SDS011;30799;49.060;9.312;2023-03-04T12:55:15;5.78;;;4.97;;
45059;SDS011;30799;49.060;9.312;2023-03-04T12:57:45;8.90;;;5.45;;
45059;SDS011;30799;49.060;9.312;2023-03-04T13:11:00;6.65;;;5.70;;
45059;SDS011;30799;49.060;9.312;2023-03-04T13:16:50;5.03;;;4.40;;
45059;SDS011;30799;49.060;9.312;2023-03-04T13:25:43;5.72;;;4.53;;
45059;SDS011;30799;49.060;9.312;2023-03-04T13:28:05;5.22;;;4.60;;
45059;SDS011;30799;49.060;9.312;2023-03-04T13:35:57;6.20;;;4.68;;
45059;SDS011;30799;49.060;9.312;2023-03-04T13:51:37;5.95;;;4.70;;
45059;SDS011;30799;49.060;9.312;2023-03-04T13:54:11;5.78;;;5.18;;
45059;SDS011;30799;49.060;9.312;2023-03-04T14:01:48;6.60;;;4.93;;
45059;SDS011;30799;49.060;9.312;2023-03-04T14:04:40;5.40;;;4.35;;
45059;SDS011;30799;49.060;9.312;2023-03-04T14:12:33;7.93;;;4.82;;
45059;SDS011;30799;49.060;9.312;2023-03-04T14:15:03;7.20;;;4.75;;
45059;SDS011;30799;49.060;9.312;2023-03-04T14:17:45;6.07;;;4.88;;
45059;SDS011;30799;49.060;9.312;2023-03-04T14:20:24;6.00;;;5.10;;
45059;SDS011;30799;49.060;9.312;2023-03-04T14:22:55;5.78;;;4.72;;
45059;SDS011;30799;49.060;9.312;2023-03-04T14:25:24;7.85;;;5.00;;
45059;SDS011;30799;49.060;9.312;2023-03-04T14:28:02;7.65;;;5.30;;
45059;SDS011;30799;49.060;9.312;2023-03-04T14:30:31;5.20;;;4.57;;
45059;SDS011;30799;49.060;9.312;2023-03-04T14:33:13;6.60;;;4.30;;
45059;SDS011;30799;49.060;9.312;2023-03-04T14:35:50;6.20;;;5.20;;
45059;SDS011;30799;49.060;9.312;2023-03-04T14:38:23;10.23;;;6.25;;
45059;SDS011;30799;49.060;9.312;2023-03-04T14:40:58;7.07;;;5.75;;
45059;SDS011;30799;49.060;9.312;2023-03-04T14:43:43;5.90;;;5.18;;
45059;SDS011;30799;49.060;9.312;2023-03-04T14:46:18;7.40;;;5.32;;
45059;SDS011;30799;49.060;9.312;2023-03-04T14:48:50;6.35;;;5.35;;
45059;SDS011;30799;49.060;9.312;2023-03-04T14:51:32;6.10;;;5.15;;
45059;SDS011;30799;49.060;9.312;2023-03-04T14:54:25;5.20;;;4.70;;
45059;SDS011;30799;49.060;9.312;2023-03-04T14:57:25;5.40;;;4.90;;
45059;SDS011;30799;49.060;9.312;2023-03-04T14:59:54;5.75;;;5.13;;
45059;SDS011;30799;49.060;9.312;2023-03-04T15:02:37;7.13;;;5.10;;
45059;SDS011;30799;49.060;9.312;2023-03-04T15:05:09;6.18;;;4.75;;
45059;SDS011;30799;49.060;9.312;2023-03-04T15:07:42;5.60;;;4.90;;
45059;SDS011;30799;49.060;9.312;2023-03-04T15:10:18;5.45;;;4.78;;
45059;SDS011;30799;49.060;9.312;2023-03-04T15:12:55;6.40;;;4.72;;
45059;SDS011;30799;49.060;9.312;2023-03-04T15:20:53;6.32;;;5.20;;
45059;SDS011;30799;49.060;9.312;2023-03-04T15:23:23;6.57;;;4.75;;
45059;SDS011;30799;49.060;9.312;2023-03-04T15:28:20;33.72;;;24.52;;
45059;SDS011;30799;49.060;9.312;2023-03-04T15:30:48;29.00;;;23.45;;
45059;SDS011;30799;49.060;9.312;2023-03-04T15:33:15;23.40;;;18.13;;
45059;SDS011;30799;49.060;9.312;2023-03-04T15:35:48;18.13;;;14.02;;
45059;SDS011;30799;49.060;9.312;2023-03-04T15:38:21;15.77;;;12.18;;
45059;SDS011;30799;49.060;9.312;2023-03-04T15:40:48;19.90;;;12.65;;
45059;SDS011;30799;49.060;9.312;2023-03-04T15:43:20;19.50;;;13.32;;
45059;SDS011;30799;49.060;9.312;2023-03-04T15:45:48;21.25;;;13.68;;
45059;SDS011;30799;49.060;9.312;2023-03-04T15:48:16;18.35;;;12.65;;
45059;SDS011;30799;49.060;9.312;2023-03-04T15:50:54;17.10;;;11.27;;
45059;SDS011;30799;49.060;9.312;2023-03-04T15:56:01;15.10;;;10.70;;
45059;SDS011;30799;49.060;9.312;2023-03-04T15:58:29;11.90;;;9.13;;
45059;SDS011;30799;49.060;9.312;2023-03-04T16:01:00;14.85;;;8.77;;
45059;SDS011;30799;49.060;9.312;2023-03-04T16:03:27;12.50;;;9.07;;
45059;SDS011;30799;49.060;9.312;2023-03-04T16:05:53;11.68;;;8.20;;
45059;SDS011;30799;49.060;9.312;2023-03-04T16:08:21;13.95;;;8.07;;
45059;SDS011;30799;49.060;9.312;2023-03-04T16:10:50;10.25;;;7.50;;
45059;SDS011;30799;49.060;9.312;2023-03-04T16:13:19;12.15;;;8.07;;
45059;SDS011;30799;49.060;9.312;2023-03-04T16:15:47;12.07;;;8.52;;
45059;SDS011;30799;49.060;9.312;2023-03-04T16:18:15;10.55;;;7.70;;
45059;SDS011;30799;49.060;9.312;2023-03-04T16:20:43;8.85;;;7.25;;
45059;SDS011;30799;49.060;9.312;2023-03-04T16:23:13;8.40;;;7.05;;
45059;SDS011;30799;49.060;9.312;2023-03-04T16:25:44;10.30;;;7.25;;
45059;SDS011;30799;49.060;9.312;2023-03-04T16:28:12;8.55;;;6.80;;
45059;SDS011;30799;49.060;9.312;2023-03-04T16:30:39;11.48;;;7.47;;
45059;SDS011;30799;49.060;9.312;2023-03-04T16:33:07;15.55;;;11.52;;
45059;SDS011;30799;49.060;9.312;2023-03-04T16:35:34;19.27;;;14.43;;
45059;SDS011;30799;49.060;9.312;2023-03-04T16:38:03;19.90;;;13.73;;
45059;SDS011;30799;49.060;9.312;2023-03-04T16:42:59;13.05;;;9.20;;
45059;SDS011;30799;49.060;9.312;2023-03-04T16:45:26;11.98;;;8.00;;
45059;SDS011;30799;49.060;9.312;2023-03-04T16:47:57;7.72;;;6.80;;
45059;SDS011;30799;49.060;9.312;2023-03-04T16:50:24;11.38;;;7.63;;
45059;SDS011;30799;49.060;9.312;2023-03-04T16:52:54;10.45;;;7.28;;
45059;SDS011;30799;49.060;9.312;2023-03-04T16:55:25;10.68;;;6.88;;
45059;SDS011;30799;49.060;9.312;2023-03-04T16:57:54;9.52;;;6.45;;
45059;SDS011;30799;49.060;9.312;2023-03-04T17:00:23;10.73;;;5.88;;
45059;SDS011;30799;49.060;9.312;2023-03-04T17:03:01;9.82;;;6.07;;
45059;SDS011;30799;49.060;9.312;2023-03-04T17:05:30;9.00;;;6.00;;
45059;SDS011;30799;49.060;9.312;2023-03-04T17:07:58;8.32;;;5.93;;
45059;SDS011;30799;49.060;9.312;2023-03-04T17:10:24;7.85;;;5.90;;
45059;SDS011;30799;49.060;9.312;2023-03-04T17:12:51;8.18;;;5.40;;
45059;SDS011;30799;49.060;9.312;2023-03-04T17:15:18;8.57;;;5.40;;
45059;SDS011;30799;49.060;9.312;2023-03-04T17:17:45;7.93;;;5.13;;
45059;SDS011;30799;49.060;9.312;2023-03-04T17:20:13;15.02;;;9.85;;